createdAt,value
2022-09-07T00:01:11.854Z,3.89
2022-09-07T00:03:38.999Z,3.65
2022-09-07T00:06:08.533Z,3.42
2022-09-07T00:08:35.549Z,3.25
2022-09-07T00:11:04.859Z,3.65
2022-09-07T00:13:33.721Z,4.24
2022-09-07T00:16:05.373Z,4.35
2022-09-07T00:18:32.545Z,4.17
2022-09-07T00:21:07.542Z,3.90
2022-09-07T00:23:35.445Z,3.63
2022-09-07T00:26:16.826Z,3.39
2022-09-07T00:28:44.492Z,3.15
2022-09-07T00:31:16.372Z,2.97
2022-09-07T00:33:43.833Z,3.40
2022-09-07T00:36:11.161Z,3.95
2022-09-07T00:38:38.314Z,4.00
2022-09-07T00:41:05.663Z,3.80
2022-09-07T00:43:35.364Z,3.51
2022-09-07T00:46:02.756Z,3.23
2022-09-07T00:48:36.800Z,2.97
2022-09-07T00:51:06.997Z,2.69
2022-09-07T00:53:46.423Z,2.50
2022-09-07T00:56:13.449Z,2.95
2022-09-07T00:58:42.338Z,3.49
2022-09-07T01:01:10.208Z,3.56
2022-09-07T01:03:44.312Z,3.36
2022-09-07T01:06:23.277Z,3.07
2022-09-07T01:08:51.498Z,2.80
2022-09-07T01:11:22.377Z,2.59
2022-09-07T01:13:50.122Z,2.37
2022-09-07T01:16:42.454Z,2.18
2022-09-07T01:19:37.869Z,2.70
2022-09-07T01:22:29.622Z,3.25
2022-09-07T01:25:03.033Z,3.21
2022-09-07T01:27:37.637Z,3.01
2022-09-07T01:30:18.791Z,2.77
2022-09-07T01:33:07.260Z,2.53
2022-09-07T01:36:02.402Z,2.31
2022-09-07T01:38:29.389Z,2.18
2022-09-07T01:41:07.701Z,2.76
2022-09-07T01:43:44.372Z,3.43
2022-09-07T01:46:19.193Z,3.47
2022-09-07T01:48:46.456Z,3.25
2022-09-07T01:51:13.606Z,3.01
2022-09-07T01:53:43.923Z,2.72
2022-09-07T01:56:16.904Z,2.48
2022-09-07T01:59:00.986Z,2.27
2022-09-07T02:01:44.908Z,2.06
2022-09-07T02:04:17.806Z,1.91
2022-09-07T02:07:01.960Z,2.52
2022-09-07T02:09:33.909Z,3.25
2022-09-07T02:12:03.414Z,3.35
2022-09-07T02:14:38.173Z,3.19
2022-09-07T02:17:06.921Z,2.91
2022-09-07T02:19:36.961Z,2.67
2022-09-07T02:22:05.934Z,2.43
2022-09-07T02:24:44.575Z,2.23
2022-09-07T02:27:14.445Z,2.09
2022-09-07T02:29:43.638Z,2.59
2022-09-07T02:32:10.662Z,3.20
2022-09-07T02:34:37.573Z,3.31
2022-09-07T02:37:05.574Z,3.16
2022-09-07T02:39:33.948Z,2.91
2022-09-07T02:42:01.041Z,2.67
2022-09-07T02:44:31.947Z,2.44
2022-09-07T02:47:01.907Z,2.22
2022-09-07T02:49:34.471Z,2.06
2022-09-07T02:52:23.429Z,2.49
2022-09-07T02:55:09.835Z,3.19
2022-09-07T02:58:01.995Z,3.27
2022-09-07T03:00:31.578Z,3.08
2022-09-07T03:03:21.766Z,2.81
2022-09-07T03:06:10.732Z,2.50
2022-09-07T03:08:47.469Z,2.21
2022-09-07T03:11:14.524Z,1.96
2022-09-07T03:13:41.596Z,1.76
2022-09-07T03:16:13.092Z,2.22
2022-09-07T03:18:40.253Z,2.89
2022-09-07T03:21:07.343Z,3.03
2022-09-07T03:23:34.391Z,2.84
2022-09-07T03:26:01.439Z,2.52
2022-09-07T03:28:28.726Z,2.25
2022-09-07T03:30:55.951Z,2.04
2022-09-07T03:33:22.986Z,1.82
2022-09-07T03:36:00.684Z,1.67
2022-09-07T03:38:27.698Z,2.14
2022-09-07T03:41:01.871Z,2.73
2022-09-07T03:43:29.507Z,2.85
2022-09-07T03:45:58.446Z,2.62
2022-09-07T03:48:25.648Z,2.22
2022-09-07T03:50:59.851Z,2.07
2022-09-07T03:53:26.932Z,1.93
2022-09-07T03:55:58.780Z,1.80
2022-09-07T03:58:25.818Z,1.75
2022-09-07T04:00:52.966Z,2.32
2022-09-07T04:03:20.424Z,3.08
2022-09-07T04:05:47.447Z,3.38
2022-09-07T04:08:14.524Z,3.50
2022-09-07T04:10:41.979Z,3.60
2022-09-07T04:13:08.902Z,3.69
2022-09-07T04:15:35.969Z,3.81
2022-09-07T04:18:03.249Z,4.00
2022-09-07T04:20:30.286Z,4.23
2022-09-07T04:22:57.520Z,4.94
2022-09-07T04:25:24.689Z,5.81
2022-09-07T04:27:51.550Z,6.27
2022-09-07T04:30:18.656Z,6.52
2022-09-07T04:32:46.932Z,6.50
2022-09-07T04:35:14.497Z,6.45
2022-09-07T04:37:41.556Z,6.35
2022-09-07T04:40:09.392Z,6.38
2022-09-07T04:42:36.861Z,6.43
2022-09-07T04:45:04.965Z,6.46
2022-09-07T04:47:31.885Z,6.53
2022-09-07T04:49:58.948Z,6.62
2022-09-07T04:52:26.046Z,6.75
2022-09-07T04:54:53.045Z,7.50
2022-09-07T04:57:24.473Z,8.42
2022-09-07T04:59:52.156Z,8.84
2022-09-07T05:02:19.793Z,9.03
2022-09-07T05:04:46.968Z,9.14
2022-09-07T05:07:13.939Z,9.25
2022-09-07T05:09:41.065Z,9.37
2022-09-07T05:12:08.187Z,9.48
2022-09-07T05:14:35.176Z,9.43
2022-09-07T05:17:02.989Z,9.37
2022-09-07T05:19:30.183Z,9.39
2022-09-07T05:21:57.447Z,9.36
2022-09-07T05:24:24.403Z,9.33
2022-09-07T05:26:51.499Z,9.33
2022-09-07T05:32:05.863Z,9.34
2022-09-07T05:34:33.003Z,9.28
2022-09-07T05:37:01.092Z,9.22
2022-09-07T05:39:28.280Z,9.17
2022-09-07T05:41:55.715Z,9.19
2022-09-07T05:47:10.655Z,9.29
2022-09-07T05:49:37.790Z,10.06
2022-09-07T05:52:04.907Z,10.91
2022-09-07T05:54:32.024Z,11.20
2022-09-07T05:56:59.070Z,11.18
2022-09-07T05:59:26.014Z,11.12
2022-09-07T06:01:52.996Z,11.05
2022-09-07T06:04:20.228Z,10.83
2022-09-07T06:07:04.636Z,10.63
2022-09-07T06:09:34.676Z,10.49
2022-09-07T06:12:05.624Z,10.49
2022-09-07T06:14:33.447Z,10.52
2022-09-07T06:17:00.583Z,10.52
2022-09-07T06:19:27.761Z,10.52
2022-09-07T06:21:54.758Z,10.42
2022-09-07T06:24:21.681Z,10.47
2022-09-07T06:26:48.744Z,10.52
2022-09-07T06:29:15.772Z,10.55
2022-09-07T06:34:29.731Z,10.72
2022-09-07T06:36:56.992Z,10.93
2022-09-07T06:39:24.063Z,11.01
2022-09-07T06:44:28.936Z,11.15
2022-09-07T06:47:03.216Z,11.29
2022-09-07T06:49:30.962Z,11.49
2022-09-07T06:51:57.911Z,11.47
2022-09-07T06:57:12.076Z,11.85
2022-09-07T06:59:39.536Z,12.11
2022-09-07T07:02:06.992Z,12.39
2022-09-07T07:04:39.375Z,12.61
2022-09-07T07:07:07.021Z,12.75
2022-09-07T07:09:34.185Z,12.89
2022-09-07T07:12:01.216Z,13.18
2022-09-07T07:14:29.932Z,13.18
2022-09-07T07:16:58.226Z,13.33
2022-09-07T07:19:25.226Z,13.61
2022-09-07T07:24:39.289Z,14.04
2022-09-07T07:27:07.057Z,14.19
2022-09-07T07:29:34.306Z,14.19
2022-09-07T07:32:01.456Z,14.25
2022-09-07T07:34:29.353Z,14.42
2022-09-07T07:36:56.341Z,14.35
2022-09-07T07:42:10.345Z,14.54
2022-09-07T07:44:37.196Z,14.58
2022-09-07T07:47:04.290Z,14.76
2022-09-07T07:49:31.470Z,14.96
2022-09-07T07:54:45.637Z,15.03
2022-09-07T07:57:12.817Z,15.30
2022-09-07T07:59:39.637Z,15.53
2022-09-07T08:02:09.073Z,15.64
2022-09-07T08:04:36.402Z,15.83
2022-09-07T08:07:09.259Z,16.06
2022-09-07T08:09:41.953Z,15.81
2022-09-07T08:12:10.138Z,15.71
2022-09-07T08:14:41.345Z,15.82
2022-09-07T08:17:13.508Z,16.09
2022-09-07T08:19:40.668Z,16.30
2022-09-07T08:22:09.035Z,16.48
2022-09-07T08:24:36.119Z,16.76
2022-09-07T08:27:03.274Z,17.00
2022-09-07T08:29:33.761Z,17.16
2022-09-07T08:35:22.780Z,17.29
2022-09-07T08:37:49.968Z,17.40
2022-09-07T08:40:17.981Z,17.51
2022-09-07T08:43:24.494Z,17.55
2022-09-07T08:45:53.568Z,17.67
2022-09-07T08:48:29.050Z,17.71
2022-09-07T08:51:24.169Z,17.55
2022-09-07T08:53:51.882Z,17.17
2022-09-07T08:56:33.929Z,17.13
2022-09-07T08:59:03.555Z,17.47
2022-09-07T09:01:39.650Z,17.81
2022-09-07T09:04:16.755Z,18.24
2022-09-07T09:07:25.731Z,18.62
2022-09-07T09:10:04.996Z,18.80
2022-09-07T09:12:40.745Z,18.73
2022-09-07T09:15:23.768Z,18.90
2022-09-07T09:18:25.897Z,19.67
2022-09-07T09:20:55.148Z,19.86
2022-09-07T09:23:42.058Z,20.34
2022-09-07T09:26:18.341Z,20.94
2022-09-07T09:28:45.364Z,21.02
2022-09-07T09:31:23.106Z,21.12
2022-09-07T09:34:08.065Z,21.29
2022-09-07T09:36:40.607Z,20.95
2022-09-07T09:39:30.421Z,21.11
2022-09-07T09:42:13.812Z,21.71
2022-09-07T09:44:41.175Z,21.70
2022-09-07T09:47:33.451Z,21.79
2022-09-07T09:52:29.358Z,21.53
2022-09-07T09:53:04.397Z,21.58
2022-09-07T09:55:37.617Z,21.53
2022-09-07T10:04:04.614Z,22.12
2022-09-07T10:06:33.153Z,22.31
2022-09-07T10:09:03.154Z,22.53
2022-09-07T10:14:35.768Z,22.19
2022-09-07T10:17:30.960Z,22.15
2022-09-07T10:20:02.209Z,22.56
2022-09-07T10:22:36.907Z,22.79
2022-09-07T10:25:05.915Z,23.08
2022-09-07T10:27:35.318Z,23.21
2022-09-07T10:30:03.673Z,23.23
2022-09-07T10:32:57.787Z,22.52
2022-09-07T10:35:35.370Z,22.44
2022-09-07T10:38:02.230Z,22.56
2022-09-07T10:40:30.494Z,21.93
2022-09-07T10:43:23.831Z,22.21
2022-09-07T10:46:10.503Z,22.94
2022-09-07T10:48:56.869Z,23.37
2022-09-07T10:51:36.303Z,23.38
2022-09-07T10:54:32.868Z,23.78
2022-09-07T10:57:32.352Z,23.29
2022-09-07T11:00:08.269Z,22.61
2022-09-07T11:03:28.573Z,23.14
2022-09-07T11:06:19.410Z,23.24
2022-09-07T11:09:18.014Z,23.63
2022-09-07T11:12:05.339Z,24.09
2022-09-07T11:14:39.399Z,23.79
2022-09-07T11:17:22.352Z,23.74
2022-09-07T11:20:11.218Z,23.43
2022-09-07T11:22:53.617Z,23.51
2022-09-07T11:25:31.337Z,23.70
2022-09-07T11:28:22.865Z,23.94
2022-09-07T11:30:54.560Z,24.20
2022-09-07T11:33:31.590Z,24.38
2022-09-07T11:36:02.500Z,24.32
2022-09-07T11:38:51.577Z,23.81
2022-09-07T11:41:22.302Z,23.25
2022-09-07T11:44:01.746Z,23.11
2022-09-07T11:46:43.994Z,22.92
2022-09-07T11:49:25.936Z,22.53
2022-09-07T11:51:56.282Z,22.03
2022-09-07T11:54:52.089Z,22.16
2022-09-07T11:57:44.440Z,21.66
2022-09-07T12:00:24.633Z,21.95
2022-09-07T12:03:19.806Z,22.32
2022-09-07T12:05:55.702Z,21.99
2022-09-07T12:08:50.964Z,21.90
2022-09-07T12:11:35.941Z,21.34
2022-09-07T12:14:21.332Z,21.60
2022-09-07T12:16:51.242Z,21.70
2022-09-07T12:19:27.622Z,21.78
2022-09-07T12:21:56.554Z,21.88
2022-09-07T12:24:35.683Z,22.09
2022-09-07T12:27:21.201Z,21.93
2022-09-07T12:30:07.081Z,22.05
2022-09-07T12:32:56.817Z,22.10
2022-09-07T12:35:44.140Z,22.24
2022-09-07T12:38:34.082Z,22.36
2022-09-07T12:41:24.163Z,22.12
2022-09-07T12:44:16.141Z,22.09
2022-09-07T12:47:23.382Z,22.14
2022-09-07T12:50:28.422Z,22.03
2022-09-07T12:53:14.312Z,21.91
2022-09-07T12:58:51.878Z,21.96
2022-09-07T13:01:25.082Z,22.17
2022-09-07T13:04:05.134Z,22.31
2022-09-07T13:07:05.817Z,22.43
2022-09-07T13:09:38.990Z,22.44
2022-09-07T13:15:41.863Z,22.19
2022-09-07T13:18:35.368Z,22.30
2022-09-07T13:21:09.296Z,22.26
2022-09-07T13:23:40.044Z,21.81
2022-09-07T13:26:11.672Z,21.88
2022-09-07T13:28:40.117Z,21.76
2022-09-07T13:31:19.674Z,21.38
2022-09-07T13:33:48.596Z,21.34
2022-09-07T13:36:33.853Z,21.31
2022-09-07T13:39:00.679Z,21.07
2022-09-07T13:41:36.074Z,21.07
2022-09-07T13:44:04.081Z,20.98
2022-09-07T13:46:33.563Z,20.45
2022-09-07T13:49:20.939Z,20.36
2022-09-07T13:51:56.076Z,20.24
2022-09-07T13:54:28.729Z,20.35
2022-09-07T13:57:05.017Z,20.51
2022-09-07T13:59:34.418Z,20.45
2022-09-07T14:02:01.408Z,20.40
2022-09-07T14:04:35.481Z,20.34
2022-09-07T14:07:04.086Z,20.37
2022-09-07T14:09:31.072Z,20.56
2022-09-07T14:11:58.075Z,20.73
2022-09-07T14:14:33.439Z,20.74
2022-09-07T14:17:00.422Z,20.63
2022-09-07T14:19:39.576Z,20.67
2022-09-07T14:22:23.723Z,20.77
2022-09-07T14:24:57.391Z,20.82
2022-09-07T14:27:35.216Z,20.96
2022-09-07T14:30:34.623Z,21.03
2022-09-07T14:33:20.540Z,21.14
2022-09-07T14:35:47.881Z,21.24
2022-09-07T14:41:13.975Z,21.01
2022-09-07T14:43:55.141Z,20.79
2022-09-07T14:46:29.770Z,20.71
2022-09-07T14:49:01.946Z,20.80
2022-09-07T14:51:36.468Z,20.82
2022-09-07T14:54:05.859Z,20.81
2022-09-07T14:56:40.543Z,20.55
2022-09-07T14:59:28.647Z,20.05
2022-09-07T15:02:26.669Z,19.99
2022-09-07T15:05:23.821Z,20.37
2022-09-07T15:08:01.693Z,20.52
2022-09-07T15:10:30.098Z,20.50
2022-09-07T15:12:58.733Z,20.07
2022-09-07T15:15:39.859Z,20.04
2022-09-07T15:18:45.422Z,20.16
2022-09-07T15:21:12.457Z,20.29
2022-09-07T15:23:39.879Z,20.33
2022-09-07T15:26:07.415Z,20.40
2022-09-07T15:34:16.054Z,20.38
2022-09-07T15:36:51.224Z,20.28
2022-09-07T15:39:26.937Z,20.12
2022-09-07T15:41:54.488Z,20.05
2022-09-07T15:44:26.036Z,19.94
2022-09-07T15:49:49.201Z,19.61
2022-09-07T15:52:17.592Z,19.45
2022-09-07T15:54:44.703Z,19.16
2022-09-07T15:59:58.648Z,18.99
2022-09-07T16:05:12.798Z,18.74
2022-09-07T16:10:31.016Z,18.15
2022-09-07T16:13:03.237Z,17.95
2022-09-07T16:15:45.162Z,17.98
2022-09-07T16:18:16.524Z,17.94
2022-09-07T16:20:44.202Z,17.87
2022-09-07T16:23:14.040Z,17.70
2022-09-07T16:25:42.523Z,17.53
2022-09-07T16:28:09.552Z,17.33
2022-09-07T16:30:39.652Z,17.09
2022-09-07T16:33:06.635Z,16.88
2022-09-07T16:35:33.655Z,16.69
2022-09-07T16:40:47.591Z,16.27
2022-09-07T16:43:14.467Z,16.11
2022-09-07T16:48:28.283Z,15.74
2022-09-07T16:51:01.269Z,15.54
2022-09-07T16:53:29.267Z,15.33
2022-09-07T16:56:13.617Z,15.00
2022-09-07T16:58:45.395Z,14.71
2022-09-07T17:01:14.657Z,14.55
2022-09-07T17:03:41.717Z,14.48
2022-09-07T17:06:10.545Z,14.40
2022-09-07T17:08:38.275Z,14.29
2022-09-07T17:11:19.452Z,14.15
2022-09-07T17:13:46.716Z,13.98
2022-09-07T17:16:15.166Z,13.82
2022-09-07T17:21:31.286Z,13.52
2022-09-07T17:23:59.950Z,13.36
2022-09-07T17:26:27.455Z,13.25
2022-09-07T17:28:56.629Z,13.30
2022-09-07T17:34:13.654Z,13.19
2022-09-07T17:36:40.615Z,12.92
2022-09-07T17:39:16.846Z,12.66
2022-09-07T17:41:44.747Z,12.40
2022-09-07T17:44:11.709Z,12.20
2022-09-07T17:46:38.504Z,12.04
2022-09-07T17:49:08.241Z,11.89
2022-09-07T17:51:35.701Z,11.75
2022-09-07T17:54:11.453Z,11.63
2022-09-07T17:56:39.501Z,11.53
2022-09-07T18:01:56.327Z,11.29
2022-09-07T18:04:23.608Z,11.19
2022-09-07T18:06:51.167Z,11.00
2022-09-07T18:09:20.042Z,10.74
2022-09-07T18:11:48.678Z,10.53
2022-09-07T18:14:16.406Z,10.40
2022-09-07T18:16:44.158Z,10.30
2022-09-07T18:19:11.562Z,10.32
2022-09-07T18:21:39.341Z,10.57
2022-09-07T18:24:11.757Z,10.74
2022-09-07T18:26:40.345Z,10.72
2022-09-07T18:29:18.672Z,10.63
2022-09-07T18:31:53.921Z,10.58
2022-09-07T18:34:21.145Z,10.50
2022-09-07T18:36:48.072Z,10.49
2022-09-07T18:39:15.363Z,10.45
2022-09-07T18:41:42.595Z,10.40
2022-09-07T18:47:31.737Z,10.35
2022-09-07T18:49:59.262Z,10.29
2022-09-07T18:55:14.199Z,9.99
2022-09-07T18:57:46.184Z,9.82
2022-09-07T19:00:13.939Z,9.69
2022-09-07T19:02:41.285Z,9.54
2022-09-07T19:07:55.918Z,10.61
2022-09-07T19:10:23.272Z,10.74
2022-09-07T19:12:50.277Z,10.64
2022-09-07T19:15:17.424Z,10.48
2022-09-07T19:17:44.495Z,10.27
2022-09-07T19:20:11.732Z,10.10
2022-09-07T19:22:39.142Z,9.93
2022-09-07T19:25:06.629Z,9.75
2022-09-07T19:27:33.896Z,9.53
2022-09-07T19:30:01.154Z,9.30
2022-09-07T19:32:28.298Z,9.14
2022-09-07T19:34:55.685Z,8.98
2022-09-07T19:37:26.068Z,8.75
2022-09-07T19:39:56.200Z,8.70
2022-09-07T19:42:24.094Z,9.34
2022-09-07T19:44:52.025Z,10.00
2022-09-07T19:47:20.756Z,10.12
2022-09-07T19:49:47.765Z,9.80
2022-09-07T19:52:15.630Z,9.66
2022-09-07T19:54:42.606Z,9.68
2022-09-07T19:57:10.235Z,9.63
2022-09-07T19:59:37.236Z,9.60
2022-09-07T20:02:04.237Z,9.50
2022-09-07T20:04:31.243Z,9.35
2022-09-07T20:06:58.427Z,9.20
2022-09-07T20:09:25.983Z,9.05
2022-09-07T20:11:52.929Z,8.89
2022-09-07T20:14:20.489Z,8.68
2022-09-07T20:16:47.639Z,8.48
2022-09-07T20:19:15.178Z,8.92
2022-09-07T20:21:42.659Z,9.51
2022-09-07T20:24:12.001Z,9.79
2022-09-07T20:26:38.909Z,9.75
2022-09-07T20:31:53.834Z,9.33
2022-09-07T20:34:20.929Z,9.14
2022-09-07T20:36:51.298Z,8.93
2022-09-07T20:39:18.510Z,8.72
2022-09-07T20:41:45.698Z,8.50
2022-09-07T20:44:12.806Z,8.31
2022-09-07T20:46:39.748Z,8.14
2022-09-07T20:49:07.213Z,7.96
2022-09-07T20:51:34.171Z,8.27
2022-09-07T20:54:01.046Z,8.80
2022-09-07T20:56:28.567Z,8.98
2022-09-07T20:58:57.181Z,9.04
2022-09-07T21:01:24.295Z,8.90
2022-09-07T21:03:53.185Z,8.68
2022-09-07T21:06:20.694Z,8.46
2022-09-07T21:08:47.886Z,8.27
2022-09-07T21:11:17.268Z,8.07
2022-09-07T21:13:44.588Z,7.82
2022-09-07T21:16:13.067Z,7.50
2022-09-07T21:18:40.136Z,7.43
2022-09-07T21:21:22.657Z,8.14
2022-09-07T21:23:49.834Z,8.82
2022-09-07T21:26:20.559Z,8.90
2022-09-07T21:28:47.537Z,8.72
2022-09-07T21:31:14.445Z,8.37
2022-09-07T21:33:41.603Z,8.00
2022-09-07T21:36:10.492Z,7.73
2022-09-07T21:38:37.948Z,7.62
2022-09-07T21:41:15.346Z,7.54
2022-09-07T21:43:42.533Z,7.44
2022-09-07T21:46:11.469Z,7.31
2022-09-07T21:48:38.419Z,7.18
2022-09-07T21:51:05.395Z,7.07
2022-09-07T21:53:32.467Z,7.54
2022-09-07T21:56:01.351Z,8.17
2022-09-07T21:58:28.662Z,8.31
2022-09-07T22:00:56.679Z,8.20
2022-09-07T22:03:24.710Z,8.01
2022-09-07T22:05:51.638Z,7.79
2022-09-07T22:08:18.647Z,7.59
2022-09-07T22:10:45.844Z,7.40
2022-09-07T22:13:12.794Z,7.20
2022-09-07T22:15:40.886Z,6.98
2022-09-07T22:18:10.707Z,6.81
2022-09-07T22:20:37.848Z,6.68
2022-09-07T22:23:07.635Z,7.13
2022-09-07T22:25:35.293Z,7.68
2022-09-07T22:28:02.347Z,7.86
2022-09-07T22:30:29.380Z,7.80
2022-09-07T22:32:56.332Z,7.65
2022-09-07T22:35:23.727Z,7.50
2022-09-07T22:37:50.682Z,7.32
2022-09-07T22:40:17.707Z,7.13
2022-09-07T22:42:44.621Z,6.94
2022-09-07T22:45:11.494Z,6.77
2022-09-07T22:47:38.413Z,6.63
2022-09-07T22:50:06.033Z,6.52
2022-09-07T22:52:33.120Z,6.97
2022-09-07T22:54:59.942Z,7.53
2022-09-07T22:57:26.924Z,7.52
2022-09-07T22:59:53.851Z,7.34
2022-09-07T23:02:20.678Z,7.13
2022-09-07T23:04:47.602Z,6.88
2022-09-07T23:07:15.144Z,6.58
2022-09-07T23:09:42.048Z,6.32
2022-09-07T23:12:08.992Z,6.06
2022-09-07T23:14:36.242Z,5.91
2022-09-07T23:17:03.077Z,6.48
2022-09-07T23:19:29.984Z,7.18
2022-09-07T23:21:56.966Z,7.29
2022-09-07T23:24:24.015Z,7.00
2022-09-07T23:26:50.877Z,6.58
2022-09-07T23:29:18.311Z,6.29
2022-09-07T23:31:45.484Z,6.06
2022-09-07T23:34:12.439Z,5.91
2022-09-07T23:36:39.353Z,5.79
2022-09-07T23:39:06.158Z,5.61
2022-09-07T23:41:33.024Z,5.37
2022-09-07T23:44:00.697Z,5.65
2022-09-07T23:46:27.702Z,6.19
2022-09-07T23:48:54.738Z,6.22
2022-09-07T23:51:24.476Z,6.07
2022-09-07T23:53:52.574Z,5.90
2022-09-07T23:56:20.090Z,5.65
2022-09-07T23:58:46.991Z,5.33
